Time;durP1;ratioP1;P1;durP2;ratioP2;P2;SDS_P1;SDS_P2;PMS_P1;PMS_P2;Temp;Humidity;BMP_temperature;BMP_pressure;BME280_temperature;BME280_humidity;BME280_pressure;Samples;Min_cycle;Max_cycle;Signal;HPM_P1;HPM_P2
2022/01/30 00:00:41;;;;;;;;;;;;;;;6.05;53.42;99574.34;4280120;33;34828;-90
2022/01/30 00:03:34;;;;;;;;;;;;;;;5.93;53.34;99577.69;4278912;33;35296;-91
2022/01/30 00:09:34;;;;;;;;;;;;;;;5.90;54.47;99567.37;4280041;33;34007;-90
2022/01/30 00:12:15;;;;;;;;;;;;;;;5.78;54.92;99575.91;4281473;33;33755;-92
2022/01/30 00:14:56;;;;;;;;;;;;;;;5.62;55.83;99565.56;4336750;33;33497;-92
2022/01/30 00:32:23;;;;;;;;;;;;;;;5.69;57.88;99529.53;4285677;33;32422;-94
2022/01/30 00:35:33;;;;;;;;;;;;;;;5.81;56.92;99509.88;4276767;33;34965;-91
2022/01/30 00:50:51;;;;;;;;;;;;;;;5.97;55.66;99483.34;4249213;33;34175;-90
2022/01/30 00:53:37;;;;;;;;;;;;;;;5.25;57.99;99488.19;4245974;33;35159;-90
2022/01/30 00:56:14;;;;;;;;;;;;;;;5.92;55.83;99482.41;4264671;33;35555;-91
2022/01/30 00:58:48;;;;;;;;;;;;;;;6.11;54.77;99478.19;4296596;33;33891;-91
2022/01/30 01:01:17;;;;;;;;;;;;;;;5.75;55.17;99465.22;4298066;33;36113;-90
2022/01/30 01:03:48;;;;;;;;;;;;;;;5.88;54.75;99460.97;4306749;33;34313;-91
2022/01/30 01:06:16;;;;;;;;;;;;;;;5.83;55.05;99472.97;4308171;33;33325;-89
2022/01/30 01:08:52;;;;;;;;;;;;;;;5.90;55.39;99484.16;4310018;33;33464;-89
2022/01/30 01:23:40;;;;;;;;;;;;;;;5.54;56.76;99435.13;4344833;32;35400;-90
2022/01/30 01:26:20;;;;;;;;;;;;;;;5.63;56.58;99441.16;4354057;32;33711;-93
2022/01/30 01:29:12;;;;;;;;;;;;;;;5.53;57.08;99433.44;4339876;32;33524;-91
2022/01/30 01:38:25;;;;;;;;;;;;;;;5.73;56.05;99415.47;4330260;33;35027;-92
2022/01/30 01:41:45;;;;;;;;;;;;;;;5.70;56.74;99401.72;4329131;33;35455;-92
2022/01/30 01:51:19;;;;;;;;;;;;;;;5.85;56.53;99377.72;4330588;33;36176;-91
2022/01/30 01:54:24;;;;;;;;;;;;;;;5.81;56.62;99376.84;4342420;32;34637;-93
2022/01/30 02:02:47;;;;;;;;;;;;;;;5.67;57.47;99375.97;4346095;32;35318;-93
2022/01/30 02:11:12;;;;;;;;;;;;;;;5.18;58.54;99360.44;4342556;32;34169;-91
2022/01/30 02:14:01;;;;;;;;;;;;;;;5.26;58.35;99351.03;4357481;32;34169;-90
2022/01/30 02:25:37;;;;;;;;;;;;;;;5.38;56.57;99335.63;4366556;32;33270;-92
2022/01/30 02:28:17;;;;;;;;;;;;;;;5.29;56.75;99328.75;4370266;32;34869;-90
2022/01/30 02:30:59;;;;;;;;;;;;;;;4.83;58.45;99323.47;4359286;32;36171;-92
2022/01/30 02:33:28;;;;;;;;;;;;;;;4.95;58.42;99314.06;4373512;32;35098;-91
2022/01/30 02:36:00;;;;;;;;;;;;;;;4.98;58.05;99303.78;4372222;32;33826;-91
2022/01/30 02:38:32;;;;;;;;;;;;;;;4.79;58.27;99293.47;4371936;32;33445;-90
2022/01/30 02:41:01;;;;;;;;;;;;;;;4.82;58.22;99295.19;4376050;32;34036;-95
2022/01/30 02:43:36;;;;;;;;;;;;;;;4.78;58.31;99276.31;4362360;32;35211;-90
2022/01/30 02:46:10;;;;;;;;;;;;;;;4.41;59.20;99275.31;4374437;32;34439;-91
2022/01/30 02:48:48;;;;;;;;;;;;;;;4.05;60.88;99266.53;4372638;32;32407;-93
2022/01/30 02:51:21;;;;;;;;;;;;;;;4.39;60.02;99269.31;4366053;32;34239;-91
2022/01/30 02:54:02;;;;;;;;;;;;;;;3.83;62.58;99255.28;4359680;32;34571;-91
2022/01/30 02:56:34;;;;;;;;;;;;;;;4.46;61.97;99265.91;4358077;32;34522;-92
2022/01/30 02:59:03;;;;;;;;;;;;;;;4.50;63.17;99259.94;4363677;32;33069;-93
2022/01/30 03:01:35;;;;;;;;;;;;;;;4.72;61.59;99260.03;4359092;32;33919;-93
2022/01/30 03:04:05;;;;;;;;;;;;;;;4.81;61.44;99257.47;4358390;32;34878;-93
2022/01/30 03:06:36;;;;;;;;;;;;;;;4.87;61.01;99255.78;4359389;32;33823;-92
2022/01/30 03:09:07;;;;;;;;;;;;;;;5.10;60.77;99249.84;4359421;32;33306;-90
2022/01/30 03:11:38;;;;;;;;;;;;;;;5.28;61.73;99231.84;4363408;32;33659;-93
2022/01/30 03:14:08;;;;;;;;;;;;;;;5.16;62.67;99229.28;4359183;32;33607;-94
2022/01/30 03:16:39;;;;;;;;;;;;;;;5.16;63.34;99225.84;4354715;32;33935;-94
2022/01/30 03:19:24;;;;;;;;;;;;;;;5.33;62.79;99234.44;4357328;32;34407;-91
2022/01/30 03:21:58;;;;;;;;;;;;;;;5.51;62.11;99233.59;4368402;32;35143;-93
2022/01/30 03:24:36;;;;;;;;;;;;;;;5.53;62.05;99232.75;4360064;32;34242;-90
2022/01/30 03:27:28;;;;;;;;;;;;;;;5.81;61.26;99213.84;4360621;32;34948;-91
2022/01/30 03:30:34;;;;;;;;;;;;;;;5.82;61.32;99206.09;4358044;32;34255;-91
2022/01/30 03:33:22;;;;;;;;;;;;;;;;;;;;;
2022/01/30 03:40:07;;;;;;;;;;;;;;;5.87;61.39;99194.09;4362686;32;34158;-91
2022/01/30 03:43:16;;;;;;;;;;;;;;;6.06;61.02;99189.75;4360116;32;34499;-91
2022/01/30 04:02:42;;;;;;;;;;;;;;;6.08;61.42;99182.91;4341868;33;36422;-93
2022/01/30 04:06:21;;;;;;;;;;;;;;;6.16;61.07;99172.56;4325029;33;34797;-90
2022/01/30 04:09:12;;;;;;;;;;;;;;;6.01;61.60;99172.63;4329703;33;33256;-94
2022/01/30 04:23:12;;;;;;;;;;;;;;;6.20;61.61;99156.25;4243855;33;33215;-94
2022/01/30 04:29:08;;;;;;;;;;;;;;;6.05;62.53;99176.91;4339773;33;35432;-89
2022/01/30 04:38:54;;;;;;;;;;;;;;;6.28;62.56;99162.25;4340499;32;34944;-91
2022/01/30 04:41:55;;;;;;;;;;;;;;;6.45;62.02;99166.44;4364845;32;33836;-91
2022/01/30 04:53:20;;;;;;;;;;;;;;;6.51;62.40;99163.84;4297370;33;35034;-93
2022/01/30 04:58:51;;;;;;;;;;;;;;;6.52;62.33;99156.06;4313617;33;33241;-93
2022/01/30 05:01:34;;;;;;;;;;;;;;;6.65;61.90;99156.88;4314115;33;33831;-92
2022/01/30 05:04:19;;;;;;;;;;;;;;;6.53;62.34;99152.66;4312650;33;33928;-96
2022/01/30 05:07:26;;;;;;;;;;;;;;;6.62;62.26;99154.34;4313446;33;34995;-94
2022/01/30 05:09:46;;;;;;;;;;;;;;;6.64;62.12;99157.75;4313224;33;32618;-93
2022/01/30 05:12:15;;;;;;;;;;;;;;;6.54;62.52;99162.09;4313137;33;34724;-93
2022/01/30 05:14:46;;;;;;;;;;;;;;;6.49;63.04;99181.03;4316722;33;34907;-92
2022/01/30 05:17:15;;;;;;;;;;;;;;;6.40;63.45;99163.88;4327546;33;33636;-94
2022/01/30 05:19:43;;;;;;;;;;;;;;;6.71;62.51;99162.00;4327724;33;33383;-92
2022/01/30 05:22:12;;;;;;;;;;;;;;;6.95;61.52;99160.13;4345232;32;34021;-96
2022/01/30 05:25:00;;;;;;;;;;;;;;;6.80;61.90;99166.25;4355569;32;34133;-93
2022/01/30 05:27:28;;;;;;;;;;;;;;;6.92;61.47;99155.84;4360705;32;34524;-92
2022/01/30 05:30:01;;;;;;;;;;;;;;;6.65;62.32;99145.72;4405548;32;33427;-93
2022/01/30 05:32:30;;;;;;;;;;;;;;;6.51;62.99;99141.50;4404126;32;33496;-92
2022/01/30 05:34:59;;;;;;;;;;;;;;;6.65;62.64;99140.56;4404786;32;34634;-94
2022/01/30 05:37:28;;;;;;;;;;;;;;;6.61;62.77;99144.88;4404783;32;33947;-92
2022/01/30 05:40:00;;;;;;;;;;;;;;;6.40;63.74;99136.41;4404058;32;31847;-91
2022/01/30 05:42:29;;;;;;;;;;;;;;;6.61;63.16;99137.16;4394119;32;32710;-92
2022/01/30 05:45:11;;;;;;;;;;;;;;;6.62;63.03;99141.44;4403384;32;35311;-92
2022/01/30 05:47:44;;;;;;;;;;;;;;;6.25;64.43;99149.34;4402884;32;34818;-93
2022/01/30 05:50:14;;;;;;;;;;;;;;;6.55;63.57;99144.94;4389266;32;32191;-92
2022/01/30 05:52:46;;;;;;;;;;;;;;;6.51;63.59;99156.97;4412628;32;34040;-91
2022/01/30 05:55:16;;;;;;;;;;;;;;;6.46;63.79;99144.97;4418801;32;34377;-91
2022/01/30 05:57:46;;;;;;;;;;;;;;;6.50;63.68;99137.22;4422806;32;34583;-91
2022/01/30 06:00:20;;;;;;;;;;;;;;;6.61;63.23;99150.88;4418866;32;32994;-92
2022/01/30 06:02:52;;;;;;;;;;;;;;;6.59;63.35;99151.75;4417838;32;34400;-92
2022/01/30 06:05:23;;;;;;;;;;;;;;;6.53;63.66;99154.37;4418173;32;34887;-91
2022/01/30 06:07:53;;;;;;;;;;;;;;;6.56;63.43;99152.63;4418346;32;34425;-93
2022/01/30 06:10:23;;;;;;;;;;;;;;;6.54;63.63;99149.19;4422531;32;32648;-91
2022/01/30 06:12:52;;;;;;;;;;;;;;;6.60;63.24;99148.34;4419573;32;35323;-90
2022/01/30 06:15:22;;;;;;;;;;;;;;;6.33;64.25;99142.47;4404027;32;33008;-93
2022/01/30 06:17:52;;;;;;;;;;;;;;;6.68;62.95;99132.81;4423967;32;34676;-91
2022/01/30 06:20:26;;;;;;;;;;;;;;;6.60;63.12;99146.59;4423741;32;33980;-94
2022/01/30 06:23:03;;;;;;;;;;;;;;;6.49;63.03;99161.25;4423199;32;33924;-91
2022/01/30 06:25:46;;;;;;;;;;;;;;;6.73;62.43;99168.00;4426303;32;32600;-90
2022/01/30 06:28:42;;;;;;;;;;;;;;;6.46;63.43;99165.59;4427564;32;33913;-91
2022/01/30 06:31:16;;;;;;;;;;;;;;;6.63;62.79;99156.03;4422834;32;32454;-91
2022/01/30 06:33:59;;;;;;;;;;;;;;;6.69;62.73;99157.72;4423019;32;33669;-91
2022/01/30 06:36:30;;;;;;;;;;;;;;;6.75;62.51;99163.69;4409334;32;34820;-92
2022/01/30 06:38:59;;;;;;;;;;;;;;;6.82;62.32;99160.22;4408721;32;34455;-94
2022/01/30 06:41:29;;;;;;;;;;;;;;;6.81;62.72;99171.41;4424078;32;31976;-91
2022/01/30 06:44:07;;;;;;;;;;;;;;;6.82;62.92;99180.84;4427168;32;33640;-94
2022/01/30 06:46:46;;;;;;;;;;;;;;;7.07;62.16;99190.97;4426883;32;37768;-91
2022/01/30 06:49:22;;;;;;;;;;;;;;;6.83;62.92;99192.84;4422961;32;33395;-93
2022/01/30 06:51:52;;;;;;;;;;;;;;;6.97;63.10;99197.09;4410775;32;34078;-91
2022/01/30 06:54:23;;;;;;;;;;;;;;;6.90;63.42;99185.09;4423012;32;32416;-93
2022/01/30 06:56:55;;;;;;;;;;;;;;;7.32;61.75;99189.09;4422464;32;32933;-92
2022/01/30 06:59:52;;;;;;;;;;;;;;;7.34;61.20;99178.75;4422341;32;34033;-93
2022/01/30 07:02:28;;;;;;;;;;;;;;;7.43;61.07;99178.66;4428452;32;31496;-88
2022/01/30 07:04:58;;;;;;;;;;;;;;;7.60;59.97;99191.44;4423210;32;34833;-93
2022/01/30 07:07:27;;;;;;;;;;;;;;;7.80;59.32;99192.06;4422052;32;33935;-91
2022/01/30 07:09:55;;;;;;;;;;;;;;;7.61;59.65;99181.09;4422643;32;33872;-93
2022/01/30 07:12:23;;;;;;;;;;;;;;;7.59;59.19;99180.25;4422026;32;34011;-91
2022/01/30 07:14:52;;;;;;;;;;;;;;;7.58;58.66;99167.34;4422456;32;34193;-91
2022/01/30 07:17:21;;;;;;;;;;;;;;;7.63;57.95;99179.31;4410973;32;34856;-93
2022/01/30 07:19:50;;;;;;;;;;;;;;;7.81;56.81;99167.12;4406857;32;34533;-93
2022/01/30 07:22:19;;;;;;;;;;;;;;;7.77;56.73;99168.88;4406818;32;34795;-91
2022/01/30 07:24:47;;;;;;;;;;;;;;;7.78;56.44;99147.37;4418954;32;35100;-92
2022/01/30 07:27:16;;;;;;;;;;;;;;;7.69;56.70;99148.31;4419970;32;34834;-92
2022/01/30 07:29:45;;;;;;;;;;;;;;;7.88;55.72;99143.81;4422336;32;33921;-93
2022/01/30 07:32:13;;;;;;;;;;;;;;;7.85;55.59;99133.53;4418646;32;34267;-92
2022/01/30 07:34:42;;;;;;;;;;;;;;;7.82;54.77;99148.16;4402473;32;33047;-92
2022/01/30 07:37:12;;;;;;;;;;;;;;;7.67;55.09;99136.28;4419042;32;35030;-93
2022/01/30 07:39:40;;;;;;;;;;;;;;;7.79;54.58;99137.88;4419301;32;33715;-92
2022/01/30 07:42:09;;;;;;;;;;;;;;;7.66;54.54;99158.66;4424276;32;33338;-92
2022/01/30 07:44:38;;;;;;;;;;;;;;;7.80;53.25;99144.75;4419606;32;34223;-93
2022/01/30 07:47:07;;;;;;;;;;;;;;;7.77;53.14;99147.37;4418634;32;33741;-91
2022/01/30 07:49:35;;;;;;;;;;;;;;;7.82;51.88;99161.94;4402673;32;33418;-91
2022/01/30 07:52:04;;;;;;;;;;;;;;;7.82;51.30;99177.44;4402323;32;32133;-92
2022/01/30 07:54:35;;;;;;;;;;;;;;;7.91;51.07;99150.66;4421581;32;33954;-94
2022/01/30 07:57:04;;;;;;;;;;;;;;;8.00;49.94;99160.91;4418466;32;34212;-90
2022/01/30 07:59:33;;;;;;;;;;;;;;;8.22;49.03;99158.91;4418471;32;34832;-90
2022/01/30 08:02:01;;;;;;;;;;;;;;;8.12;48.08;99159.91;4404773;32;32420;-90
2022/01/30 08:04:30;;;;;;;;;;;;;;;8.14;48.47;99168.47;4418916;32;34110;-92
2022/01/30 08:07:01;;;;;;;;;;;;;;;8.12;48.64;99186.59;4419821;32;34149;-93
2022/01/30 08:09:29;;;;;;;;;;;;;;;8.16;48.69;99173.62;4423370;32;34110;-91
2022/01/30 08:32:58;;;;;;;;;;;;;;;7.41;57.69;99240.59;4604584;27;19991;-91
2022/01/30 08:35:56;;;;;;;;;;;;;;;7.26;58.56;99245.87;4328300;33;34298;-90
2022/01/30 08:39:00;;;;;;;;;;;;;;;7.61;57.31;99232.72;4326175;33;35220;-91
2022/01/30 08:41:37;;;;;;;;;;;;;;;7.55;57.53;99258.56;4329495;33;34251;-91
2022/01/30 08:44:11;;;;;;;;;;;;;;;7.61;57.16;99255.97;4328949;33;34819;-90
2022/01/30 08:49:45;;;;;;;;;;;;;;;7.82;55.65;99267.81;4354957;32;34197;-89
2022/01/30 08:52:16;;;;;;;;;;;;;;;7.72;55.24;99234.34;4355620;32;33668;-89
2022/01/30 08:54:44;;;;;;;;;;;;;;;7.98;53.94;99267.69;4290337;33;33590;-89
2022/01/30 08:57:13;;;;;;;;;;;;;;;7.91;52.88;99243.62;4302649;33;34932;-89
2022/01/30 08:59:42;;;;;;;;;;;;;;;7.99;51.69;99282.31;4293927;32;34194;-89
2022/01/30 09:02:15;;;;;;;;;;;;;;;8.12;50.34;99248.59;4296336;33;33034;-89
2022/01/30 09:04:46;;;;;;;;;;;;;;;8.12;50.47;99256.34;4301129;33;34418;-91
2022/01/30 09:07:15;;;;;;;;;;;;;;;8.44;49.75;99224.16;4296493;33;33099;-90
2022/01/30 09:09:43;;;;;;;;;;;;;;;8.27;49.73;99249.31;4298699;33;33888;-91
2022/01/30 09:12:14;;;;;;;;;;;;;;;8.48;49.13;99243.94;4297287;33;33989;-89
2022/01/30 09:14:43;;;;;;;;;;;;;;;8.43;48.81;99268.09;4296913;33;34144;-88
2022/01/30 09:17:14;;;;;;;;;;;;;;;8.45;48.53;99276.69;4300797;33;34335;-90
2022/01/30 09:19:49;;;;;;;;;;;;;;;8.48;47.67;99269.78;4296295;33;34411;-89
2022/01/30 09:22:18;;;;;;;;;;;;;;;8.59;47.32;99269.63;4296517;33;33081;-88
2022/01/30 09:24:47;;;;;;;;;;;;;;;8.57;47.04;99286.03;4296841;33;34014;-88
2022/01/30 09:27:16;;;;;;;;;;;;;;;8.44;46.33;99293.94;4296083;33;34399;-88
2022/01/30 09:29:45;;;;;;;;;;;;;;;8.64;45.93;99274.75;4306824;33;34111;-89
2022/01/30 09:32:14;;;;;;;;;;;;;;;8.57;46.67;99276.56;4299801;33;32008;-88
2022/01/30 09:34:42;;;;;;;;;;;;;;;8.67;46.04;99283.31;4295359;33;34145;-89
2022/01/30 09:37:17;;;;;;;;;;;;;;;8.83;45.91;99277.97;4295693;33;35056;-89
2022/01/30 09:40:05;;;;;;;;;;;;;;;8.80;44.96;99291.81;4346171;32;34400;-88
2022/01/30 09:42:33;;;;;;;;;;;;;;;8.68;44.20;99282.47;4300427;33;33181;-89
2022/01/30 09:45:09;;;;;;;;;;;;;;;8.72;43.17;99297.09;4365040;32;34426;-87
2022/01/30 09:47:43;;;;;;;;;;;;;;;8.59;43.85;99273.97;4358446;32;34470;-88
2022/01/30 09:50:17;;;;;;;;;;;;;;;8.36;44.81;99300.91;4296539;33;34087;-90
2022/01/30 09:52:50;;;;;;;;;;;;;;;8.07;46.54;99288.25;4308611;33;33715;-90
2022/01/30 09:55:19;;;;;;;;;;;;;;;8.03;47.15;99276.25;4304717;33;34973;-89
2022/01/30 09:58:02;;;;;;;;;;;;;;;7.76;47.99;99275.63;4345794;32;36653;-89
2022/01/30 10:00:38;;;;;;;;;;;;;;;7.82;48.01;99292.78;4297024;33;34317;-88
2022/01/30 10:03:07;;;;;;;;;;;;;;;7.86;48.39;99290.16;4350010;32;32323;-88
2022/01/30 10:05:49;;;;;;;;;;;;;;;7.87;48.05;99293.59;4346349;32;36063;-88
2022/01/30 10:08:29;;;;;;;;;;;;;;;7.85;48.21;99278.13;4343973;32;34241;-90
2022/01/30 10:11:41;;;;;;;;;;;;;;;7.95;48.26;99291.81;4332305;32;34492;-88
2022/01/30 10:14:18;;;;;;;;;;;;;;;7.73;49.16;99291.13;4344186;32;36960;-90
2022/01/30 10:17:07;;;;;;;;;;;;;;;7.52;48.95;99310.22;4348101;32;36220;-90
2022/01/30 10:19:37;;;;;;;;;;;;;;;7.28;50.06;99333.62;4294235;33;34260;-92
2022/01/30 10:22:11;;;;;;;;;;;;;;;6.83;52.18;99342.38;4349520;32;34503;-89
2022/01/30 10:24:53;;;;;;;;;;;;;;;6.73;53.82;99360.50;4300070;33;33768;-88
2022/01/30 10:27:24;;;;;;;;;;;;;;;6.49;52.74;99336.50;4294090;32;34761;-89
2022/01/30 10:29:58;;;;;;;;;;;;;;;6.24;53.26;99307.34;4287566;33;34881;-87
2022/01/30 10:32:27;;;;;;;;;;;;;;;6.28;52.62;99297.88;4288742;33;33910;-88
2022/01/30 10:35:03;;;;;;;;;;;;;;;6.34;50.68;99311.62;4341763;32;33710;-87
2022/01/30 10:37:36;;;;;;;;;;;;;;;6.36;50.24;99316.78;4287980;33;33603;-87
2022/01/30 10:40:12;;;;;;;;;;;;;;;6.82;49.60;99320.06;4341674;32;35154;-87
2022/01/30 10:42:41;;;;;;;;;;;;;;;6.73;49.11;99314.09;4288556;33;33499;-87
2022/01/30 10:45:12;;;;;;;;;;;;;;;7.00;48.39;99329.44;4287623;33;33383;-87
2022/01/30 10:47:44;;;;;;;;;;;;;;;7.01;47.87;99332.91;4288429;33;33763;-87
2022/01/30 10:50:21;;;;;;;;;;;;;;;7.16;47.40;99330.22;4288643;33;34155;-87
2022/01/30 10:53:03;;;;;;;;;;;;;;;7.12;46.65;99310.47;4337361;32;34504;-87
2022/01/30 10:55:45;;;;;;;;;;;;;;;7.30;46.06;99311.22;4290602;33;33072;-87
2022/01/30 10:58:20;;;;;;;;;;;;;;;7.43;45.21;99313.72;4339568;32;34414;-87
2022/01/30 11:00:55;;;;;;;;;;;;;;;7.26;45.48;99329.31;4293033;33;34270;-88
2022/01/30 11:03:40;;;;;;;;;;;;;;;7.45;45.52;99305.97;4340542;32;33720;-89
2022/01/30 11:06:11;;;;;;;;;;;;;;;7.70;45.28;99323.00;4296370;33;33174;-89
2022/01/30 11:08:43;;;;;;;;;;;;;;;8.05;44.61;99303.78;4298112;33;34083;-87
2022/01/30 11:11:33;;;;;;;;;;;;;;;8.25;44.10;99305.31;4345831;32;35166;-88
2022/01/30 11:14:18;;;;;;;;;;;;;;;8.68;43.04;99328.16;4347875;32;34885;-87
2022/01/30 11:17:02;;;;;;;;;;;;;;;8.81;42.44;99287.47;4299472;33;34254;-88
2022/01/30 11:19:38;;;;;;;;;;;;;;;8.56;43.09;99295.53;4299213;33;34479;-90
2022/01/30 11:22:07;;;;;;;;;;;;;;;8.57;42.81;99286.03;4295537;33;33527;-88
2022/01/30 11:24:46;;;;;;;;;;;;;;;8.32;41.92;99301.78;4296015;33;33596;-87
2022/01/30 11:27:15;;;;;;;;;;;;;;;8.37;41.39;99266.41;4293644;33;33011;-88
2022/01/30 11:29:45;;;;;;;;;;;;;;;8.23;41.38;99286.38;4293418;33;33754;-87
2022/01/30 11:32:18;;;;;;;;;;;;;;;8.15;41.76;99291.63;4301212;33;35773;-88
2022/01/30 11:34:54;;;;;;;;;;;;;;;8.18;41.41;99268.34;4298312;33;34053;-88
2022/01/30 11:37:25;;;;;;;;;;;;;;;7.87;45.60;99306.50;4297221;33;34019;-87
2022/01/30 11:39:54;;;;;;;;;;;;;;;7.28;48.27;99282.00;4298239;33;34296;-86
2022/01/30 11:42:25;;;;;;;;;;;;;;;7.38;47.51;99276.78;4297609;33;34655;-87
2022/01/30 11:45:14;;;;;;;;;;;;;;;7.40;47.64;99281.94;4299069;33;33771;-87
2022/01/30 11:48:11;;;;;;;;;;;;;;;7.46;49.44;99300.78;4297417;33;34362;-88
2022/01/30 11:50:39;;;;;;;;;;;;;;;7.17;51.50;99266.59;4302568;33;34461;-87
2022/01/30 11:53:10;;;;;;;;;;;;;;;7.75;50.60;99260.13;4297895;33;33469;-87
2022/01/30 11:55:48;;;;;;;;;;;;;;;7.68;49.23;99236.97;4298937;33;33840;-85
2022/01/30 11:58:38;;;;;;;;;;;;;;;7.90;46.48;99250.53;4298122;33;34210;-87
2022/01/30 12:01:16;;;;;;;;;;;;;;;8.01;46.37;99232.34;4297746;33;33756;-87
2022/01/30 12:03:59;;;;;;;;;;;;;;;8.22;43.11;99235.59;4297329;33;35125;-87
2022/01/30 12:06:28;;;;;;;;;;;;;;;8.50;42.33;99215.44;4296795;33;33726;-87
2022/01/30 12:09:00;;;;;;;;;;;;;;;8.32;42.24;99206.16;4301441;33;32943;-87
2022/01/30 12:11:50;;;;;;;;;;;;;;;8.48;41.85;99233.59;4297374;33;34291;-87
2022/01/30 12:14:52;;;;;;;;;;;;;;;8.34;40.94;99201.84;4297218;33;33736;-89
2022/01/30 12:17:54;;;;;;;;;;;;;;;7.96;41.07;99213.44;4296831;33;34222;-87
2022/01/30 12:20:24;;;;;;;;;;;;;;;8.10;40.58;99218.47;4326364;33;31442;-88
2022/01/30 12:22:53;;;;;;;;;;;;;;;8.02;40.62;99236.66;4326489;33;34268;-86
2022/01/30 12:25:35;;;;;;;;;;;;;;;8.23;39.88;99239.87;4326054;33;34941;-90
2022/01/30 12:28:13;;;;;;;;;;;;;;;8.21;39.58;99215.75;4326540;33;34021;-87
2022/01/30 12:30:49;;;;;;;;;;;;;;;8.24;39.89;99232.09;4333020;33;32529;-88
2022/01/30 12:33:37;;;;;;;;;;;;;;;8.28;40.30;99235.50;4329308;33;34027;-88
2022/01/30 12:36:17;;;;;;;;;;;;;;;8.01;40.87;99231.50;4325999;33;33623;-88
2022/01/30 12:38:45;;;;;;;;;;;;;;;8.09;40.67;99260.66;4326209;33;34099;-88
2022/01/30 12:41:15;;;;;;;;;;;;;;;7.80;41.68;99241.13;4323569;33;32286;-89
2022/01/30 12:43:43;;;;;;;;;;;;;;;7.93;41.19;99239.31;4324897;33;33991;-89
2022/01/30 12:46:12;;;;;;;;;;;;;;;7.89;41.63;99260.88;4323184;33;32046;-88
2022/01/30 12:48:42;;;;;;;;;;;;;;;8.06;41.05;99233.16;4322613;33;33971;-89
2022/01/30 12:51:14;;;;;;;;;;;;;;;7.99;40.91;99223.75;4330479;32;32717;-89
2022/01/30 12:53:44;;;;;;;;;;;;;;;8.13;40.91;99229.63;4354371;32;34089;-87
2022/01/30 12:56:12;;;;;;;;;;;;;;;8.50;40.67;99244.75;4350817;32;32925;-88
2022/01/30 12:58:41;;;;;;;;;;;;;;;8.65;39.91;99245.44;4352207;32;34772;-87
2022/01/30 13:01:11;;;;;;;;;;;;;;;8.30;40.92;99233.75;4358425;32;33501;-88
2022/01/30 13:03:39;;;;;;;;;;;;;;;7.86;42.96;99229.91;4359468;32;33350;-87
2022/01/30 13:06:08;;;;;;;;;;;;;;;7.97;43.07;99228.06;4355635;32;33684;-88
2022/01/30 13:08:48;;;;;;;;;;;;;;;8.10;42.53;99208.16;4351100;32;33892;-88
2022/01/30 13:11:17;;;;;;;;;;;;;;;8.23;42.06;99220.03;4352566;32;33944;-87
2022/01/30 13:14:07;;;;;;;;;;;;;;;8.52;41.17;99205.94;4351261;32;35752;-88
2022/01/30 13:16:36;;;;;;;;;;;;;;;8.64;41.22;99195.44;4355322;32;33861;-87
2022/01/30 13:19:06;;;;;;;;;;;;;;;8.50;39.84;99195.63;4342485;32;32633;-87
2022/01/30 13:21:35;;;;;;;;;;;;;;;8.60;39.55;99200.69;4354139;32;33173;-88
2022/01/30 13:24:06;;;;;;;;;;;;;;;8.48;38.94;99225.84;4354287;32;34986;-88
2022/01/30 13:26:35;;;;;;;;;;;;;;;8.44;38.75;99205.19;4352133;32;34013;-87
2022/01/30 13:29:06;;;;;;;;;;;;;;;8.42;38.58;99209.53;4355249;32;34313;-86
2022/01/30 13:31:36;;;;;;;;;;;;;;;8.59;38.40;99217.94;4357908;32;33286;-87
2022/01/30 13:34:10;;;;;;;;;;;;;;;8.44;37.69;99229.31;4353716;32;33993;-86
2022/01/30 13:36:38;;;;;;;;;;;;;;;8.32;38.25;99248.38;4354109;32;34307;-88
2022/01/30 13:39:12;;;;;;;;;;;;;;;8.53;39.02;99236.13;4354960;32;33867;-87
2022/01/30 13:41:50;;;;;;;;;;;;;;;8.31;39.53;99251.84;4357768;32;33480;-87
2022/01/30 13:44:26;;;;;;;;;;;;;;;8.46;39.07;99310.28;4361065;32;34875;-86
2022/01/30 13:47:02;;;;;;;;;;;;;;;8.29;39.56;99270.81;4365211;32;33590;-89
2022/01/30 13:49:31;;;;;;;;;;;;;;;8.18;39.47;99319.16;4364514;32;34037;-88
2022/01/30 13:52:03;;;;;;;;;;;;;;;7.72;42.66;99291.16;4360504;32;33891;-87
2022/01/30 13:54:37;;;;;;;;;;;;;;;7.67;42.64;99322.16;4349832;32;34092;-87
2022/01/30 13:57:06;;;;;;;;;;;;;;;7.40;42.95;99281.94;4358473;32;34060;-86
2022/01/30 13:59:34;;;;;;;;;;;;;;;7.52;43.64;99293.91;4361583;32;34538;-88
2022/01/30 14:02:04;;;;;;;;;;;;;;;7.49;43.24;99374.78;4356836;32;33432;-87
2022/01/30 14:04:33;;;;;;;;;;;;;;;7.39;42.65;99336.97;4355749;32;33284;-88
2022/01/30 14:07:02;;;;;;;;;;;;;;;7.43;43.52;99351.59;4355939;32;33901;-89
2022/01/30 14:09:38;;;;;;;;;;;;;;;7.45;43.49;99306.81;4362810;32;33929;-86
2022/01/30 14:12:08;;;;;;;;;;;;;;;7.60;42.68;99308.44;4349300;32;31751;-87
2022/01/30 14:14:42;;;;;;;;;;;;;;;7.70;42.21;99306.66;4360589;32;34057;-88
2022/01/30 14:17:14;;;;;;;;;;;;;;;7.95;41.62;99290.94;4355202;32;34009;-86
2022/01/30 14:19:50;;;;;;;;;;;;;;;7.90;41.31;99309.94;4340754;32;33263;-87
2022/01/30 14:22:21;;;;;;;;;;;;;;;7.95;41.41;99325.41;4357500;32;34058;-87
2022/01/30 14:24:51;;;;;;;;;;;;;;;8.02;41.12;99327.06;4357368;32;33540;-87
2022/01/30 14:27:20;;;;;;;;;;;;;;;7.84;41.42;99314.28;4351921;32;33707;-86
2022/01/30 14:29:52;;;;;;;;;;;;;;;7.85;41.14;99323.75;4367997;32;33874;-87
2022/01/30 14:32:21;;;;;;;;;;;;;;;8.03;40.66;99321.00;4356534;32;33393;-88
2022/01/30 14:34:50;;;;;;;;;;;;;;;7.79;41.44;99331.56;4363623;32;33940;-86
2022/01/30 14:37:20;;;;;;;;;;;;;;;8.02;41.51;99332.22;4362780;32;34235;-85
2022/01/30 14:39:55;;;;;;;;;;;;;;;7.81;42.33;99334.97;4364457;32;33441;-86
2022/01/30 14:42:23;;;;;;;;;;;;;;;7.96;41.94;99334.84;4368502;32;33122;-85
2022/01/30 14:44:52;;;;;;;;;;;;;;;7.70;42.10;99311.81;4358068;32;33776;-87
2022/01/30 14:47:20;;;;;;;;;;;;;;;7.51;43.15;99321.41;4364926;32;34303;-86
2022/01/30 14:49:49;;;;;;;;;;;;;;;7.63;42.90;99361.78;4365535;32;34219;-86
2022/01/30 14:52:19;;;;;;;;;;;;;;;7.58;43.89;99341.16;4357719;32;34129;-87
2022/01/30 14:54:48;;;;;;;;;;;;;;;7.87;43.54;99332.34;4367240;32;34662;-88
2022/01/30 14:57:21;;;;;;;;;;;;;;;7.53;43.92;99336.91;4362594;32;33920;-87
2022/01/30 14:59:51;;;;;;;;;;;;;;;7.49;44.04;99328.31;4357929;32;32463;-86
2022/01/30 15:02:19;;;;;;;;;;;;;;;7.43;43.45;99356.75;4359120;32;33011;-90
2022/01/30 15:04:48;;;;;;;;;;;;;;;7.25;44.15;99376.63;4358106;32;33802;-87
2022/01/30 15:07:16;;;;;;;;;;;;;;;7.09;45.37;99338.84;4357186;32;35132;-88
2022/01/30 15:09:45;;;;;;;;;;;;;;;7.15;44.24;99348.28;4360268;32;34103;-90
2022/01/30 15:12:13;;;;;;;;;;;;;;;6.92;43.88;99313.16;4360262;32;31962;-85
2022/01/30 15:14:50;;;;;;;;;;;;;;;7.17;43.00;99311.28;4358178;32;33927;-87
2022/01/30 15:17:21;;;;;;;;;;;;;;;7.27;42.09;99322.41;4356701;32;34674;-87
2022/01/30 15:20:12;;;;;;;;;;;;;;;7.37;41.53;99316.34;4355474;32;34187;-87
2022/01/30 15:22:40;;;;;;;;;;;;;;;7.39;41.12;99367.94;4357486;32;33632;-88
2022/01/30 15:25:09;;;;;;;;;;;;;;;7.42;40.74;99344.72;4361768;32;33930;-88
2022/01/30 15:27:38;;;;;;;;;;;;;;;7.37;41.10;99313.78;4356680;32;34725;-87
2022/01/30 15:30:09;;;;;;;;;;;;;;;7.42;40.91;99331.81;4358456;32;33864;-87
2022/01/30 15:35:50;;;;;;;;;;;;;;;7.22;41.03;99339.66;4358407;32;35565;-88
2022/01/30 15:38:19;;;;;;;;;;;;;;;7.57;41.10;99320.53;4359680;32;34006;-89
2022/01/30 15:40:47;;;;;;;;;;;;;;;7.62;40.85;99334.25;4356599;32;34091;-88
2022/01/30 15:43:37;;;;;;;;;;;;;;;7.31;41.08;99318.97;4364965;32;33533;-87
2022/01/30 15:49:04;;;;;;;;;;;;;;;7.20;40.86;99343.94;4355293;32;33373;-90
2022/01/30 15:51:33;;;;;;;;;;;;;;;7.46;40.45;99333.50;4355899;32;34585;-87
2022/01/30 15:54:26;;;;;;;;;;;;;;;7.40;40.67;99343.88;4360664;32;33861;-91
2022/01/30 15:56:55;;;;;;;;;;;;;;;7.30;40.94;99347.34;4345316;32;33266;-88
2022/01/30 15:59:24;;;;;;;;;;;;;;;7.19;41.27;99357.72;4353505;32;34668;-88
2022/01/30 16:01:58;;;;;;;;;;;;;;;7.11;41.85;99334.56;4361047;32;32150;-87
2022/01/30 16:04:27;;;;;;;;;;;;;;;7.30;41.88;99363.72;4354242;32;33586;-89
2022/01/30 16:06:56;;;;;;;;;;;;;;;7.51;41.54;99352.38;4337597;32;33806;-87
2022/01/30 16:09:37;;;;;;;;;;;;;;;7.21;42.05;99350.84;4352897;32;33266;-90
2022/01/30 16:15:48;;;;;;;;;;;;;;;7.08;41.80;99336.28;4338298;32;33122;-90
2022/01/30 16:18:52;;;;;;;;;;;;;;;7.31;41.16;99349.06;4349245;32;34312;-88
2022/01/30 16:21:30;;;;;;;;;;;;;;;7.34;40.94;99341.31;4355458;32;34250;-88
2022/01/30 16:24:18;;;;;;;;;;;;;;;7.15;40.05;99405.91;4352158;32;34259;-89